Time;durP1;ratioP1;P1;durP2;ratioP2;P2;SDS_P1;SDS_P2;PMS_P1;PMS_P2;Temp;Humidity;BMP_temperature;BMP_pressure;BME280_temperature;BME280_humidity;BME280_pressure;Samples;Min_cycle;Max_cycle;Signal;HPM_P1;HPM_P2
2021/12/04 00:00:56;;;;;;;19.37;8.03;;;;;;;-1.73;69.87;99349.84;4086636;29;20402;-79
2021/12/04 00:03:22;;;;;;;23.50;7.57;;;;;;;-1.80;70.35;99345.94;4070795;29;20233;-77
2021/12/04 00:05:55;;;;;;;23.10;7.50;;;;;;;-1.73;69.89;99347.25;4089633;29;21384;-77
2021/12/04 00:08:24;;;;;;;23.07;7.97;;;;;;;-1.77;70.11;99341.38;4073798;29;20282;-78
2021/12/04 00:10:52;;;;;;;22.80;7.97;;;;;;;-1.81;70.20;99342.47;4096691;29;20237;-78
2021/12/04 00:13:19;;;;;;;18.07;6.97;;;;;;;-1.76;70.27;99343.03;4094134;29;20241;-77
2021/12/04 00:15:46;;;;;;;22.30;8.03;;;;;;;-1.70;69.92;99352.25;4097916;29;20287;-79
2021/12/04 00:18:12;;;;;;;20.20;8.03;;;;;;;-1.76;70.40;99348.25;4080391;29;20234;-77
2021/12/04 00:20:41;;;;;;;19.67;6.97;;;;;;;-1.78;70.51;99349.28;4086489;29;20237;-79
2021/12/04 00:23:08;;;;;;;16.87;7.13;;;;;;;-1.87;70.92;99353.31;4079476;29;21898;-78
2021/12/04 00:25:35;;;;;;;19.27;7.60;;;;;;;-1.87;71.65;99347.22;4074007;29;20242;-77
2021/12/04 00:28:01;;;;;;;18.30;7.37;;;;;;;-1.86;71.41;99336.72;4092696;29;20325;-77
2021/12/04 00:30:28;;;;;;;18.43;7.20;;;;;;;-1.82;71.70;99343.41;4075862;29;20865;-79
2021/12/04 00:32:58;;;;;;;15.17;6.43;;;;;;;-1.84;71.12;99340.06;4099973;29;20242;-79
2021/12/04 00:43:16;;;;;;;15.20;6.63;;;;;;;-1.77;71.46;99330.94;4088662;29;20371;-77
2021/12/04 00:49:10;;;;;;;22.13;7.50;;;;;;;-1.78;70.54;99329.28;4080176;29;20269;-77
2021/12/04 00:51:41;;;;;;;19.63;7.77;;;;;;;-1.66;70.12;99332.03;4070966;29;22951;-77
2021/12/04 00:54:10;;;;;;;21.93;8.17;;;;;;;-1.77;70.43;99323.13;4078548;29;23981;-78
2021/12/04 00:56:38;;;;;;;21.33;7.87;;;;;;;-1.76;70.62;99321.34;4080953;29;20240;-80
2021/12/04 00:59:05;;;;;;;21.07;7.90;;;;;;;-1.78;70.32;99317.97;4097876;29;20344;-77
2021/12/04 01:01:32;;;;;;;18.57;8.03;;;;;;;-1.79;70.46;99314.53;4088548;29;20778;-78
2021/12/04 01:03:59;;;;;;;22.20;7.47;;;;;;;-1.80;70.26;99310.28;4075356;29;22764;-75
2021/12/04 01:06:25;;;;;;;21.40;8.07;;;;;;;-1.74;70.30;99303.81;4075132;29;20314;-76
2021/12/04 01:08:52;;;;;;;19.90;8.23;;;;;;;-1.81;70.55;99316.41;4079894;29;20256;-79
2021/12/04 01:11:19;;;;;;;23.50;8.53;;;;;;;-1.79;70.61;99311.94;4066372;29;20256;-78
2021/12/04 01:13:45;;;;;;;25.37;8.70;;;;;;;-1.83;70.28;99305.22;4076194;29;23180;-80
2021/12/04 01:16:14;;;;;;;18.13;7.30;;;;;;;-1.79;70.08;99293.69;4082656;29;20300;-77
2021/12/04 01:18:41;;;;;;;21.00;7.80;;;;;;;-1.78;69.94;99297.97;4083561;29;20310;-78
2021/12/04 01:21:07;;;;;;;22.83;8.07;;;;;;;-1.79;70.16;99285.84;4085678;29;25777;-78
2021/12/04 01:23:34;;;;;;;20.27;7.67;;;;;;;-1.76;69.95;99277.84;4074690;29;20397;-78
2021/12/04 01:26:00;;;;;;;23.53;8.93;;;;;;;-1.81;69.51;99277.28;4095799;29;21685;-80
2021/12/04 01:28:27;;;;;;;24.67;8.33;;;;;;;-1.82;69.75;99277.41;4083149;29;20241;-78
2021/12/04 01:30:54;;;;;;;24.60;8.87;;;;;;;-1.80;69.98;99278.97;4061729;29;20774;-78
2021/12/04 01:33:21;;;;;;;24.97;8.83;;;;;;;-1.74;69.13;99270.75;4080099;29;20309;-76
2021/12/04 01:35:47;;;;;;;22.10;8.50;;;;;;;-1.76;69.17;99275.22;4083901;29;20552;-79
2021/12/04 01:38:14;;;;;;;20.40;7.57;;;;;;;-1.74;69.13;99268.16;4076611;29;20247;-77
2021/12/04 01:40:40;;;;;;;23.20;8.27;;;;;;;-1.65;68.73;99264.13;4081961;29;21197;-79
2021/12/04 01:43:07;;;;;;;20.67;8.37;;;;;;;-1.63;69.02;99259.66;4081650;29;20252;-77
2021/12/04 01:45:34;;;;;;;17.80;7.90;;;;;;;-1.67;69.09;99262.56;4075953;29;20249;-78
2021/12/04 01:48:02;;;;;;;21.97;8.27;;;;;;;-1.64;68.94;99263.22;4076316;29;20241;-77
2021/12/04 01:50:30;;;;;;;21.63;8.17;;;;;;;-1.62;68.53;99265.72;4077640;29;20312;-80
2021/12/04 01:52:58;;;;;;;22.80;8.50;;;;;;;-1.64;68.42;99270.19;4076810;29;21582;-77
2021/12/04 01:55:30;;;;;;;20.20;8.17;;;;;;;-1.59;68.24;99268.13;4075685;29;20246;-79
2021/12/04 01:58:00;;;;;;;24.07;8.07;;;;;;;-1.62;68.46;99266.53;4084983;29;20237;-78
2021/12/04 02:00:29;;;;;;;18.17;7.90;;;;;;;-1.74;68.80;99262.94;4073317;29;20231;-78
2021/12/04 02:02:55;;;;;;;22.73;8.30;;;;;;;-1.64;68.40;99262.34;4085350;29;20419;-79
2021/12/04 02:05:23;;;;;;;19.73;8.20;;;;;;;-1.77;68.29;99259.69;4083783;29;21354;-78
2021/12/04 02:07:49;;;;;;;20.83;8.07;;;;;;;-1.77;67.95;99255.31;4079148;29;20325;-77
2021/12/04 02:10:16;;;;;;;25.30;8.07;;;;;;;-1.77;68.76;99244.88;4092765;29;20253;-77
2021/12/04 02:12:42;;;;;;;22.93;9.10;;;;;;;-1.86;68.97;99244.63;4079536;29;23762;-79
2021/12/04 02:15:13;;;;;;;19.23;7.87;;;;;;;-1.87;69.19;99241.19;4064633;29;21846;-78
2021/12/04 02:17:40;;;;;;;24.77;9.00;;;;;;;-1.86;68.94;99247.22;4080613;29;21697;-79
2021/12/04 02:20:13;;;;;;;26.13;9.27;;;;;;;-1.89;69.61;99242.22;4080355;29;20234;-79
2021/12/04 02:22:39;;;;;;;29.93;9.03;;;;;;;-1.94;69.68;99237.28;4082568;29;20404;-79
2021/12/04 02:25:08;;;;;;;22.93;8.77;;;;;;;-1.89;69.17;99237.84;4065182;29;21339;-79
2021/12/04 02:27:36;;;;;;;24.40;8.60;;;;;;;-1.91;69.82;99235.31;4074927;29;20290;-77
2021/12/04 02:30:06;;;;;;;25.80;9.17;;;;;;;-2.05;70.24;99234.50;4083123;29;20236;-78
2021/12/04 02:32:33;;;;;;;33.93;9.40;;;;;;;-1.94;70.17;99232.91;4072553;29;20245;-78
2021/12/04 02:35:00;;;;;;;23.67;9.00;;;;;;;-2.03;70.28;99230.88;4084621;29;21067;-80
2021/12/04 02:37:26;;;;;;;26.27;8.67;;;;;;;-2.03;70.53;99232.66;4088926;29;20892;-79
2021/12/04 02:40:00;;;;;;;26.00;9.87;;;;;;;-2.01;70.51;99233.41;4082549;29;20246;-78
2021/12/04 02:42:30;;;;;;;24.73;9.37;;;;;;;-2.03;70.52;99219.63;4078732;29;24311;-78
2021/12/04 02:44:58;;;;;;;23.33;9.07;;;;;;;-2.18;71.17;99222.25;4086015;29;20282;-78
2021/12/04 02:47:26;;;;;;;34.27;9.60;;;;;;;-2.18;71.26;99213.56;4067148;29;21823;-77
2021/12/04 02:49:53;;;;;;;26.07;9.77;;;;;;;-2.20;71.25;99213.69;4080218;29;21682;-78
2021/12/04 02:52:20;;;;;;;21.47;9.17;;;;;;;-2.16;71.42;99217.75;4081287;29;20334;-79
2021/12/04 02:54:47;;;;;;;24.43;9.20;;;;;;;-2.23;71.98;99211.22;4080748;29;21569;-78
2021/12/04 02:57:15;;;;;;;33.27;10.60;;;;;;;-2.28;71.57;99205.47;4081150;29;20313;-81
2021/12/04 02:59:42;;;;;;;28.67;10.03;;;;;;;-2.29;71.94;99201.22;4083081;29;20237;-78
2021/12/04 03:02:20;;;;;;;28.20;10.77;;;;;;;-2.37;72.82;99195.63;4077747;29;20303;-77
2021/12/04 03:04:49;;;;;;;26.53;9.70;;;;;;;-2.33;72.38;99202.31;4068038;29;20240;-79
2021/12/04 03:07:16;;;;;;;25.43;10.63;;;;;;;-2.33;72.62;99197.94;4069045;29;20237;-79
2021/12/04 03:09:43;;;;;;;27.20;10.47;;;;;;;-2.32;72.53;99196.16;4087564;29;20280;-78
2021/12/04 03:12:13;;;;;;;36.67;11.53;;;;;;;-2.35;72.99;99191.97;4080459;29;20233;-77
2021/12/04 03:14:40;;;;;;;29.67;11.20;;;;;;;-2.38;73.07;99201.78;4082039;29;21351;-78
2021/12/04 03:17:06;;;;;;;25.97;11.23;;;;;;;-2.39;73.36;99197.47;4073380;29;21216;-79
2021/12/04 03:19:33;;;;;;;33.67;11.13;;;;;;;-2.27;72.74;99196.75;4081419;29;20266;-77
2021/12/04 03:22:02;;;;;;;34.10;12.03;;;;;;;-2.35;73.32;99193.75;4068735;29;23152;-79
2021/12/04 03:24:30;;;;;;;31.60;11.27;;;;;;;-2.36;73.69;99189.50;4075815;29;20293;-76
2021/12/04 03:26:57;;;;;;;32.27;10.93;;;;;;;-2.32;73.64;99185.75;4091067;29;20330;-76
2021/12/04 03:29:25;;;;;;;32.70;12.77;;;;;;;-2.23;73.12;99179.13;4083487;29;20244;-78
2021/12/04 03:32:12;;;;;;;33.57;12.30;;;;;;;-2.34;74.02;99174.59;4116060;29;22184;-78
2021/12/04 03:40:22;;;;;;;33.20;12.07;;;;;;;-2.29;74.05;99177.75;4077951;29;20266;-77
2021/12/04 03:42:49;;;;;;;32.20;11.60;;;;;;;-2.33;74.21;99166.69;4073012;29;20290;-79
2021/12/04 03:45:17;;;;;;;37.63;12.53;;;;;;;-2.20;73.63;99161.56;4073918;29;21775;-79
2021/12/04 03:47:47;;;;;;;40.03;13.63;;;;;;;-2.35;74.12;99144.25;4089013;29;21444;-78
2021/12/04 03:50:14;;;;;;;28.07;12.03;;;;;;;-2.28;73.71;99148.16;4077880;29;20245;-78
2021/12/04 03:52:40;;;;;;;37.83;13.00;;;;;;;-2.27;73.94;99147.25;4092326;29;20245;-78
2021/12/04 03:55:08;;;;;;;35.13;12.93;;;;;;;-2.25;73.82;99147.97;4088731;29;25127;-77
2021/12/04 03:57:34;;;;;;;32.37;12.47;;;;;;;-2.27;73.87;99147.25;4082634;29;20345;-79
2021/12/04 04:00:03;;;;;;;36.67;13.90;;;;;;;-2.25;74.69;99142.75;4082448;29;20306;-76
2021/12/04 04:02:29;;;;;;;38.53;13.13;;;;;;;-2.22;74.01;99146.97;4079341;29;20241;-78
2021/12/04 04:04:56;;;;;;;37.10;14.03;;;;;;;-2.27;74.65;99141.16;4079670;29;20232;-77
2021/12/04 04:07:22;;;;;;;38.37;13.33;;;;;;;-2.39;74.58;99141.03;4071664;29;21768;-76
2021/12/04 04:09:49;;;;;;;40.90;13.90;;;;;;;-2.31;74.59;99137.94;4084074;29;20251;-80
2021/12/04 04:12:15;;;;;;;35.43;12.80;;;;;;;-2.35;74.95;99132.06;4076830;29;21655;-78
2021/12/04 04:14:42;;;;;;;34.57;13.60;;;;;;;-2.47;74.96;99134.59;4092662;29;20313;-77
2021/12/04 04:17:09;;;;;;;34.43;13.60;;;;;;;-2.31;74.66;99131.91;4072357;29;20355;-78
2021/12/04 04:19:35;;;;;;;35.90;12.70;;;;;;;-2.23;74.43;99135.66;4085707;29;20338;-78
2021/12/04 04:22:02;;;;;;;38.53;13.30;;;;;;;-2.26;74.55;99130.66;4081840;29;22286;-80
2021/12/04 04:24:29;;;;;;;37.23;13.10;;;;;;;-2.39;75.44;99127.13;4086300;29;20389;-77
2021/12/04 04:26:55;;;;;;;39.20;14.17;;;;;;;-2.30;75.39;99123.13;4072905;29;20265;-78
2021/12/04 04:29:22;;;;;;;41.07;13.70;;;;;;;-2.43;75.72;99112.66;4080153;29;20321;-78
2021/12/04 04:31:49;;;;;;;34.17;14.40;;;;;;;-2.34;75.67;99115.53;4077264;29;21793;-78
2021/12/04 04:34:24;;;;;;;40.20;14.37;;;;;;;-2.30;75.34;99118.75;4090735;29;21838;-79
2021/12/04 04:40:28;;;;;;;34.63;14.07;;;;;;;-2.32;75.38;99123.22;4076137;29;21223;-78
2021/12/04 05:01:43;;;;;;;34.77;12.97;;;;;;;-2.19;75.33;99097.25;4083115;29;20233;-77
2021/12/04 05:12:48;;;;;;;33.67;13.13;;;;;;;-2.16;75.32;99095.25;4082889;29;22102;-78
2021/12/04 05:15:23;;;;;;;39.10;12.87;;;;;;;-2.08;75.41;99086.13;4076962;29;20240;-76
2021/12/04 05:20:21;;;;;;;35.00;13.27;;;;;;;-1.98;75.15;99082.00;4078068;29;21043;-77
2021/12/04 05:22:48;;;;;;;27.90;11.23;;;;;;;-1.87;74.41;99084.75;4094644;29;21965;-78
2021/12/04 05:25:14;;;;;;;31.47;11.67;;;;;;;-1.95;74.50;99085.22;4066958;29;20261;-77
2021/12/04 05:27:42;;;;;;;30.60;12.00;;;;;;;-1.91;74.46;99083.28;4075912;29;20237;-79
2021/12/04 05:30:09;;;;;;;33.60;12.33;;;;;;;-1.94;74.42;99084.31;4075088;29;20652;-78
2021/12/04 05:32:35;;;;;;;32.27;11.77;;;;;;;-1.94;75.15;99083.50;4077278;29;23084;-77
2021/12/04 05:35:02;;;;;;;30.47;11.40;;;;;;;-1.84;74.35;99084.53;4067819;29;20306;-80
2021/12/04 05:37:29;;;;;;;31.10;11.23;;;;;;;-1.83;74.11;99078.38;4085213;29;20335;-78
2021/12/04 05:39:55;;;;;;;28.53;11.40;;;;;;;-1.79;73.85;99071.22;4096363;29;21249;-78
2021/12/04 05:42:22;;;;;;;27.73;10.40;;;;;;;-1.82;74.29;99067.03;4079801;29;21081;-77
2021/12/04 05:44:48;;;;;;;28.33;10.77;;;;;;;-1.73;73.14;99066.44;4072067;29;22399;-77
2021/12/04 05:47:23;;;;;;;26.93;10.60;;;;;;;-1.80;73.68;99065.16;4063875;29;21749;-78
2021/12/04 05:49:59;;;;;;;27.13;10.47;;;;;;;-1.76;73.49;99057.97;4057752;29;20647;-78
2021/12/04 05:52:40;;;;;;;28.27;9.87;;;;;;;-1.70;73.30;99058.41;4062376;29;20237;-77
2021/12/04 05:55:13;;;;;;;28.70;10.37;;;;;;;-1.62;73.31;99059.66;4079194;29;20241;-76
2021/12/04 05:57:40;;;;;;;22.20;9.43;;;;;;;-1.59;73.38;99054.22;4081463;29;20306;-78
2021/12/04 06:00:19;;;;;;;34.37;11.77;;;;;;;-1.64;72.96;99048.50;4083361;29;20236;-77
2021/12/04 06:02:46;;;;;;;25.20;9.67;;;;;;;-1.51;72.35;99058.00;4077051;29;23093;-78
2021/12/04 06:05:13;;;;;;;18.33;8.70;;;;;;;-1.49;72.23;99058.75;4080222;29;22924;-77
2021/12/04 06:07:40;;;;;;;26.37;9.47;;;;;;;-1.61;72.41;99054.34;4073742;29;20719;-77
2021/12/04 06:10:07;;;;;;;22.97;9.03;;;;;;;-1.61;73.00;99048.31;4080319;29;20229;-77
2021/12/04 06:12:34;;;;;;;19.47;9.07;;;;;;;-1.51;72.49;99059.78;4093740;29;20345;-82
2021/12/04 06:15:01;;;;;;;23.07;9.93;;;;;;;-1.48;72.14;99054.34;4085062;29;20709;-83
2021/12/04 06:17:29;;;;;;;21.80;9.07;;;;;;;-1.41;71.98;99045.19;4088279;29;20330;-80
2021/12/04 06:22:42;;;;;;;23.73;8.90;;;;;;;-1.35;71.18;99054.38;4067037;29;20326;-82
2021/12/04 06:25:19;;;;;;;25.20;9.27;;;;;;;-1.42;71.67;99053.13;4080014;29;20233;-81
2021/12/04 06:27:46;;;;;;;23.50;9.00;;;;;;;-1.28;71.19;99056.47;4079852;29;20255;-81
2021/12/04 06:30:15;;;;;;;21.97;8.33;;;;;;;-1.44;71.37;99066.25;4074095;29;20345;-77
2021/12/04 06:32:42;;;;;;;22.83;8.27;;;;;;;-1.29;71.72;99065.25;4073952;29;20236;-76
2021/12/04 06:35:10;;;;;;;19.90;7.93;;;;;;;-1.19;70.94;99083.72;4082196;29;20249;-79
2021/12/04 06:37:37;;;;;;;18.73;8.40;;;;;;;-1.19;70.92;99077.69;4088212;29;21702;-79
2021/12/04 06:40:05;;;;;;;23.03;8.83;;;;;;;-1.17;70.69;99078.38;4072458;29;20240;-79
2021/12/04 06:42:31;;;;;;;18.73;7.27;;;;;;;-1.32;71.55;99075.03;4071437;29;20320;-79
2021/12/04 06:44:58;;;;;;;23.03;7.87;;;;;;;-1.21;71.28;99077.78;4072360;29;20250;-79
2021/12/04 06:47:25;;;;;;;21.47;8.00;;;;;;;-1.09;70.23;99081.31;4084288;29;20465;-80
2021/12/04 06:49:55;;;;;;;34.33;8.23;;;;;;;-1.10;70.41;99077.03;4078460;29;20244;-78
2021/12/04 06:52:25;;;;;;;16.07;6.97;;;;;;;-1.14;71.09;99083.41;4080908;29;20480;-78
2021/12/04 06:54:57;;;;;;;22.37;7.90;;;;;;;-1.16;70.60;99078.28;4088552;29;22123;-78
2021/12/04 06:57:25;;;;;;;16.90;7.63;;;;;;;-1.01;70.51;99068.56;4074647;29;20260;-80
2021/12/04 06:59:54;;;;;;;20.17;8.23;;;;;;;-0.90;70.21;99084.31;4056539;29;20329;-80
2021/12/04 07:02:21;;;;;;;19.00;7.17;;;;;;;-0.87;69.84;99076.31;4085877;29;20928;-81
2021/12/04 07:04:47;;;;;;;17.73;7.43;;;;;;;-0.81;69.11;99079.44;4094342;29;21106;-82
2021/12/04 07:07:15;;;;;;;19.30;7.57;;;;;;;-0.83;69.39;99081.31;4066906;29;22501;-82
2021/12/04 07:09:42;;;;;;;20.43;7.47;;;;;;;-0.83;69.58;99078.69;4081650;29;20536;-80
2021/12/04 07:12:10;;;;;;;20.27;7.13;;;;;;;-0.89;69.59;99078.19;4084041;29;20229;-81
2021/12/04 07:14:37;;;;;;;19.03;7.00;;;;;;;-0.78;69.74;99073.97;4088748;29;20259;-78
2021/12/04 07:17:05;;;;;;;16.43;7.23;;;;;;;-0.77;69.50;99079.09;4056495;29;20627;-77
2021/12/04 07:19:32;;;;;;;15.13;6.83;;;;;;;-0.76;69.12;99078.16;4074316;29;22628;-76
2021/12/04 07:21:59;;;;;;;18.87;7.70;;;;;;;-0.61;68.54;99075.41;4079443;29;20259;-78
2021/12/04 07:24:26;;;;;;;18.10;7.70;;;;;;;-0.60;68.66;99077.91;4088564;29;21582;-79
2021/12/04 07:26:53;;;;;;;19.13;7.47;;;;;;;-0.64;69.06;99082.50;4077615;29;20310;-74
2021/12/04 07:29:20;;;;;;;17.33;7.20;;;;;;;-0.63;68.95;99080.75;4073206;29;20290;-77
2021/12/04 07:31:46;;;;;;;19.20;7.37;;;;;;;-0.60;68.71;99084.94;4093102;29;20241;-75
2021/12/04 07:34:13;;;;;;;14.00;6.80;;;;;;;-0.56;68.08;99083.75;4069147;29;24090;-78
2021/12/04 07:36:40;;;;;;;19.40;7.57;;;;;;;-0.59;68.67;99079.59;4082464;29;20303;-77
2021/12/04 07:39:06;;;;;;;19.70;6.63;;;;;;;-0.49;68.15;99085.84;4074479;29;21119;-76
2021/12/04 07:41:38;;;;;;;18.30;7.00;;;;;;;-0.40;67.53;99083.50;4080199;29;20235;-76
2021/12/04 07:44:08;;;;;;;19.43;6.93;;;;;;;-0.31;67.59;99077.63;4060153;29;20715;-76
2021/12/04 07:46:37;;;;;;;16.80;7.43;;;;;;;-0.29;66.97;99076.56;4063816;29;20253;-74
2021/12/04 07:49:04;;;;;;;16.77;6.67;;;;;;;-0.28;66.82;99082.63;4077012;29;22629;-84
2021/12/04 07:51:31;;;;;;;22.10;7.03;;;;;;;-0.35;67.39;99073.56;4090797;29;24793;-81
2021/12/04 07:53:58;;;;;;;13.10;6.50;;;;;;;-0.26;66.38;99075.53;4088949;29;20264;-78
2021/12/04 07:56:24;;;;;;;15.57;6.60;;;;;;;-0.24;66.84;99073.63;4074536;29;20381;-78
2021/12/04 07:58:51;;;;;;;20.60;6.97;;;;;;;-0.10;66.50;99076.09;4093308;29;20260;-78
2021/12/04 08:01:18;;;;;;;19.73;7.60;;;;;;;-0.03;65.66;99079.09;4082672;29;20699;-76
2021/12/04 08:03:45;;;;;;;16.77;6.57;;;;;;;-0.07;65.96;99075.88;4083624;29;20230;-79
2021/12/04 08:06:11;;;;;;;19.70;7.20;;;;;;;-0.14;65.83;99082.50;4076840;29;22960;-76
2021/12/04 08:08:38;;;;;;;17.43;7.30;;;;;;;-0.22;66.56;99075.19;4082598;29;20337;-77
2021/12/04 08:11:05;;;;;;;21.73;7.67;;;;;;;-0.18;66.22;99078.44;4079999;29;20326;-76
2021/12/04 08:13:32;;;;;;;24.00;8.30;;;;;;;-0.15;66.51;99075.59;4075297;29;20408;-76
2021/12/04 08:15:59;;;;;;;15.47;7.40;;;;;;;-0.11;66.36;99071.00;4089664;29;22186;-74
2021/12/04 08:18:25;;;;;;;18.30;7.87;;;;;;;-0.10;66.76;99073.47;4085067;29;20242;-75
2021/12/04 08:20:53;;;;;;;16.53;7.17;;;;;;;-0.15;66.51;99072.97;4075898;29;21281;-75
2021/12/04 08:23:20;;;;;;;15.83;6.77;;;;;;;-0.12;66.75;99067.50;4082789;29;20297;-77
2021/12/04 08:25:47;;;;;;;16.60;7.73;;;;;;;-0.01;66.57;99070.19;4089162;29;20256;-75
2021/12/04 08:28:14;;;;;;;17.83;7.33;;;;;;;0.12;65.70;99062.31;4082171;29;20294;-76
2021/12/04 08:30:41;;;;;;;17.70;7.63;;;;;;;0.16;65.91;99070.75;4072728;29;20245;-77
2021/12/04 08:33:10;;;;;;;16.20;7.33;;;;;;;0.13;65.86;99065.75;4082598;29;20662;-77
2021/12/04 08:35:39;;;;;;;15.50;7.40;;;;;;;0.16;65.84;99065.50;4054999;29;20296;-77
2021/12/04 08:38:07;;;;;;;19.70;7.47;;;;;;;0.32;65.41;99058.19;4078019;29;20376;-75
2021/12/04 08:40:35;;;;;;;23.90;7.77;;;;;;;0.34;65.23;99058.91;4084761;29;20256;-77
2021/12/04 08:43:02;;;;;;;15.30;7.23;;;;;;;0.20;65.78;99035.56;4080650;29;20238;-77
2021/12/04 08:45:29;;;;;;;15.10;6.83;;;;;;;0.23;65.63;99040.56;4082384;29;21855;-76
2021/12/04 08:47:56;;;;;;;21.00;7.90;;;;;;;0.27;65.46;99042.00;4086237;29;23964;-76
2021/12/04 08:50:26;;;;;;;18.00;7.73;;;;;;;0.40;65.12;99041.94;4084228;29;20240;-80
2021/12/04 08:52:54;;;;;;;19.83;8.23;;;;;;;0.39;65.16;99037.66;4090908;29;20245;-75
2021/12/04 08:55:22;;;;;;;17.97;8.13;;;;;;;0.48;64.52;99042.19;4074677;29;20244;-76
2021/12/04 08:57:48;;;;;;;27.63;8.73;;;;;;;0.48;64.99;99043.97;4087975;29;20297;-75
2021/12/04 09:00:30;;;;;;;24.17;9.03;;;;;;;0.42;64.49;99045.25;4094488;29;20246;-79
2021/12/04 09:02:57;;;;;;;19.67;7.40;;;;;;;0.47;64.62;99042.28;4107664;29;20329;-77
2021/12/04 09:05:24;;;;;;;22.07;7.63;;;;;;;0.51;64.11;99041.94;4106773;29;20324;-77
2021/12/04 09:07:51;;;;;;;17.60;8.13;;;;;;;0.48;64.21;99049.22;4083942;29;20453;-77
2021/12/04 09:10:18;;;;;;;15.87;7.33;;;;;;;0.47;63.83;99050.16;4099440;29;23759;-74
2021/12/04 09:12:46;;;;;;;17.33;8.20;;;;;;;0.50;63.87;99036.84;4077598;29;20659;-75
2021/12/04 09:15:16;;;;;;;19.00;8.27;;;;;;;0.44;64.12;99037.31;4070108;29;20244;-76
2021/12/04 09:17:43;;;;;;;14.83;6.73;;;;;;;0.46;64.03;99032.78;4069088;29;22966;-76
2021/12/04 09:20:12;;;;;;;19.73;8.90;;;;;;;0.47;64.35;99029.22;4096983;29;20348;-74
2021/12/04 09:22:39;;;;;;;18.50;8.17;;;;;;;0.54;63.69;99033.88;4054592;29;22084;-75
2021/12/04 09:25:11;;;;;;;17.57;7.63;;;;;;;0.57;63.73;99022.34;4089931;29;20307;-75
2021/12/04 10:00:11;;;;;;;20.40;7.57;;;;;;;0.64;64.92;99015.69;4085079;29;20296;-77
2021/12/04 10:02:55;;;;;;;16.80;7.83;;;;;;;0.69;64.78;99016.16;4064042;29;20271;-77
2021/12/04 10:14:31;;;;;;;21.47;8.10;;;;;;;0.79;64.18;98996.19;4083523;29;20241;-80
2021/12/04 10:22:41;;;;;;;18.27;7.90;;;;;;;1.09;63.02;99002.59;4069066;29;20688;-82
2021/12/04 10:33:57;;;;;;;19.33;7.90;;;;;;;1.25;61.83;98987.34;4094922;29;20317;-76
2021/12/04 10:36:29;;;;;;;22.47;8.63;;;;;;;1.26;61.49;98982.94;4075237;29;20245;-78
2021/12/04 10:38:56;;;;;;;22.87;8.97;;;;;;;1.27;61.38;98980.22;4080713;29;20301;-83
2021/12/04 10:41:31;;;;;;;20.20;8.70;;;;;;;1.41;60.93;98983.53;4121208;29;25387;-82
2021/12/04 10:44:13;;;;;;;21.20;8.67;;;;;;;1.37;60.83;98982.91;4081259;29;21747;-82
2021/12/04 10:46:55;;;;;;;24.17;8.93;;;;;;;1.46;59.99;98971.69;4137056;29;20332;-82
2021/12/04 10:49:52;;;;;;;18.87;7.73;;;;;;;1.44;59.95;98975.41;4078524;29;21598;-70
2021/12/04 10:55:57;;;;;;;15.80;6.87;;;;;;;1.55;60.22;98964.91;4081722;29;22668;-73
2021/12/04 10:59:26;;;;;;;17.60;7.00;;;;;;;1.63;60.60;98954.59;4082606;29;20306;-85
2021/12/04 11:01:52;;;;;;;18.13;7.57;;;;;;;1.82;60.10;98953.94;4090819;29;20229;-70
2021/12/04 11:26:48;;;;;;;16.70;8.07;;;;;;;1.64;60.02;98948.41;4086659;29;20243;-81
2021/12/04 11:35:39;;;;;;;17.53;7.50;;;;;;;1.53;61.29;98948.44;4079060;29;20285;-83
2021/12/04 11:38:13;;;;;;;20.30;8.43;;;;;;;1.58;61.60;98948.91;4093487;29;20237;-83
2021/12/04 11:43:29;;;;;;;16.53;7.47;;;;;;;1.78;60.15;98952.53;4094863;29;20384;-76
2021/12/04 11:48:32;;;;;;;16.00;7.90;;;;;;;1.69;60.78;98946.25;4101042;29;20269;-81
2021/12/04 11:50:59;;;;;;;20.83;8.57;;;;;;;1.76;60.30;98949.22;4102996;29;20241;-80
2021/12/04 11:53:27;;;;;;;18.50;7.97;;;;;;;1.67;61.24;98939.47;4064727;29;20320;-80
2021/12/04 11:55:54;;;;;;;18.70;8.63;;;;;;;1.72;60.92;98946.97;4065054;29;20305;-78
2021/12/04 11:58:24;;;;;;;19.03;8.50;;;;;;;1.76;61.02;98949.22;4107752;29;20245;-80
2021/12/04 12:01:04;;;;;;;21.97;8.50;;;;;;;1.69;61.36;98948.88;4078474;29;21690;-77
2021/12/04 12:03:33;;;;;;;19.37;8.87;;;;;;;1.82;61.15;98947.84;4076577;29;22957;-80
2021/12/04 12:06:04;;;;;;;23.37;9.43;;;;;;;1.79;61.61;98940.25;4085540;29;20269;-78
2021/12/04 12:08:34;;;;;;;20.27;8.30;;;;;;;1.81;61.36;98938.34;4068829;29;20285;-79
2021/12/04 12:11:04;;;;;;;21.83;9.57;;;;;;;1.87;61.01;98940.44;4075908;29;22336;-79
2021/12/04 12:13:47;;;;;;;21.03;8.90;;;;;;;1.80;61.60;98940.13;4082226;29;22347;-80
2021/12/04 12:16:16;;;;;;;25.70;9.40;;;;;;;1.61;62.76;98935.53;4068780;29;25216;-79
2021/12/04 12:18:57;;;;;;;21.37;9.33;;;;;;;1.74;62.59;98939.81;4086008;29;20368;-80
2021/12/04 12:21:33;;;;;;;20.60;8.60;;;;;;;1.80;61.13;98944.53;4071611;29;21807;-79
2021/12/04 12:24:25;;;;;;;21.73;9.20;;;;;;;1.87;62.04;98943.06;4080573;29;20236;-80
2021/12/04 12:32:55;;;;;;;26.07;8.60;;;;;;;1.83;61.93;98939.06;4064010;29;25605;-78
2021/12/04 12:36:05;;;;;;;27.27;9.83;;;;;;;2.00;61.79;98937.66;4080539;29;20980;-78
2021/12/04 12:38:53;;;;;;;27.67;9.63;;;;;;;1.85;62.28;98937.97;4079203;29;20315;-77
2021/12/04 12:41:22;;;;;;;25.37;9.60;;;;;;;1.75;62.45;98937.03;4069502;29;20831;-78
2021/12/04 12:44:09;;;;;;;23.03;9.33;;;;;;;1.78;61.77;98925.47;4076413;29;20431;-78
2021/12/04 12:46:50;;;;;;;21.13;9.27;;;;;;;1.82;61.29;98925.09;4086794;29;20241;-77
2021/12/04 12:49:38;;;;;;;21.20;9.50;;;;;;;1.93;61.05;98931.25;4099418;29;21015;-78
2021/12/04 12:52:13;;;;;;;22.63;10.13;;;;;;;1.82;62.00;98932.13;4083000;29;21099;-80
2021/12/04 12:54:56;;;;;;;26.63;10.77;;;;;;;1.89;62.01;98936.72;4081560;29;20237;-79
2021/12/04 12:57:30;;;;;;;31.93;12.00;;;;;;;1.89;61.72;98923.63;4087961;29;20234;-77
2021/12/04 13:14:14;;;;;;;21.70;9.67;;;;;;;1.64;62.26;98922.19;4089544;29;20250;-78
2021/12/04 13:16:48;;;;;;;24.73;10.60;;;;;;;1.76;61.63;98932.66;4077145;29;20242;-78
2021/12/04 13:19:17;;;;;;;22.13;9.70;;;;;;;1.52;63.15;98924.97;4091720;29;20939;-74
2021/12/04 13:21:48;;;;;;;24.33;9.13;;;;;;;1.55;63.30;98928.19;4107020;29;20569;-74
2021/12/04 13:24:15;;;;;;;27.03;9.90;;;;;;;1.71;62.65;98914.66;4095039;29;22256;-78
2021/12/04 13:26:45;;;;;;;24.47;9.50;;;;;;;1.67;62.54;98924.56;4055186;29;20249;-77
2021/12/04 13:29:17;;;;;;;20.00;8.33;;;;;;;1.66;62.75;98930.78;4076586;29;21681;-77
2021/12/04 13:31:44;;;;;;;21.53;9.30;;;;;;;1.61;62.66;98922.44;4065015;29;20236;-77
2021/12/04 13:34:13;;;;;;;28.30;9.73;;;;;;;1.45;63.16;98922.00;4076299;29;20974;-77
2021/12/04 13:36:45;;;;;;;20.93;9.37;;;;;;;1.38;64.09;98920.84;4068927;29;20538;-76
2021/12/04 13:39:14;;;;;;;18.77;8.80;;;;;;;1.40;63.96;98921.56;4077084;29;20237;-74
2021/12/04 13:41:43;;;;;;;19.67;9.40;;;;;;;1.41;64.14;98933.72;4085629;29;20249;-75
2021/12/04 13:44:12;;;;;;;23.43;9.77;;;;;;;1.35;65.50;98924.56;4074320;29;20254;-75
2021/12/04 13:46:48;;;;;;;22.40;9.47;;;;;;;1.32;66.00;98908.25;4068304;29;20307;-76
2021/12/04 13:49:20;;;;;;;21.73;9.03;;;;;;;1.47;66.72;98925.34;4059716;29;21754;-75
2021/12/04 13:51:59;;;;;;;20.03;9.33;;;;;;;1.46;67.00;98928.94;4071139;29;22522;-77
2021/12/04 13:54:28;;;;;;;23.60;9.60;;;;;;;1.55;68.61;98924.75;4064798;29;20243;-78
2021/12/04 13:56:54;;;;;;;18.30;8.80;;;;;;;1.61;68.52;98930.28;4090625;29;20349;-80
2021/12/04 13:59:25;;;;;;;18.67;8.67;;;;;;;1.47;69.49;98922.72;4080492;29;20680;-80
2021/12/04 14:01:53;;;;;;;22.53;8.87;;;;;;;1.30;69.33;98931.97;4066314;29;20347;-76
2021/12/04 14:04:20;;;;;;;25.33;9.50;;;;;;;1.11;69.86;98931.78;4049490;29;21634;-77
2021/12/04 14:06:55;;;;;;;29.13;9.60;;;;;;;1.03;70.57;98934.97;4097297;29;21640;-82
2021/12/04 14:09:24;;;;;;;22.97;10.00;;;;;;;0.82;71.69;98935.75;4081561;29;20237;-83
2021/12/04 14:11:53;;;;;;;28.03;10.73;;;;;;;0.71;72.69;98934.91;4092905;29;20234;-77
2021/12/04 14:14:23;;;;;;;23.57;10.00;;;;;;;0.72;73.30;98929.53;4085020;29;20240;-79
2021/12/04 14:16:51;;;;;;;25.30;10.93;;;;;;;0.48;76.00;98929.66;4090295;29;21365;-77
2021/12/04 14:19:27;;;;;;;27.37;10.97;;;;;;;0.49;76.48;98922.63;4085754;29;20245;-79
2021/12/04 14:21:59;;;;;;;27.73;11.77;;;;;;;0.42;77.38;98922.28;4079233;29;20245;-78
2021/12/04 14:24:44;;;;;;;27.47;11.40;;;;;;;0.43;77.89;98930.97;4084210;29;20237;-79